Terminal Aerodrome Forecast
Issued by NWS

Home | Current Version | Previous Version | Text Only | Print | Product List | Glossary On
Versions: 1 2 3 4 5 6 7 8 9 10 11 12 13 14 15 16 17 18 19 20 21 22 23 24 25 26
000
FTUS45 KLKN 031720
TAFEKO
TAF
KEKO 031720Z 0318/0418 24006KT P6SM SCT090 BKN150
     FM031900 24010G18KT P6SM VCTS SCT100CB
      TEMPO 0321/0401 VRB20G35KT TS SCT050CB BKN080
     FM040300 24008KT P6SM VCSH SCT060 BKN120=

USA.gov is the U.S. government's official web portal to all federal, state and local government web resources and services.